Latest Weather Observations for Scotts Peak

IDT60801

Issued at 8:31 pm EST Wednesday 5 August 2015 (issued every 30 minutes, with the page automatically refreshed every 10 minutes)

About weather observations | Map of weather stations | Latest weather observations for TAS | Other Formats
Station Details ID: 097083 Name: SCOTTS PEAK DAM Lat: -43.04 Lon: 146.27 Height: 408.0 m
Data from the previous 72 hours. | See also: Recent months at Scotts Peak
Date/Time
EST
Temp
°C
App
Temp
°C
Dew
Point
Rel
Hum
%
Delta-T
°C
Wind Press
QNH
hPa
Press
MSL
hPa
Rain
since 9 am
mm
Dir
 
Spd
km/h
Gust
km/h
Spd
kts
Gust
kts
05/08:30pm 1.5 -5.0 0.3 92 0.5 W 24 46 13 25 - - 13.2
05/08:00pm 1.5 -4.0 0.5 93 0.4 WSW 19 30 10 16 - - 12.8
05/07:30pm 1.0 -5.5 0.4 96 0.2 W 24 39 13 21 - - 12.6
05/07:16pm 0.7 -6.6 0.0 95 0.3 WSW 28 46 15 25 - - 12.6
05/07:00pm 1.5 -2.9 0.2 91 0.5 W 13 22 7 12 - - 12.4
05/06:30pm 1.7 -3.5 -0.1 88 0.7 WSW 17 32 9 17 - - 12.0
05/06:00pm 1.1 -5.1 -0.1 92 0.4 W 22 35 12 19 - - 12.0
05/05:47pm 1.0 -5.1 0.1 94 0.3 W 22 50 12 27 - - 12.0
05/05:30pm 1.2 -4.4 0.0 92 0.4 W 19 35 10 19 - - 12.0
05/05:00pm 2.1 -4.1 -0.5 83 1.0 WNW 22 33 12 18 - - 12.0
05/04:30pm 2.0 -3.2 0.1 87 0.7 W 17 37 9 20 - - 12.0
05/04:14pm 2.4 -4.6 -0.4 82 1.1 W 26 48 14 26 - - 12.0
05/04:00pm 2.5 -2.8 -0.4 81 1.1 W 17 39 9 21 - - 12.0
05/03:30pm 2.3 -5.0 -0.1 84 0.9 W 28 46 15 25 - - 12.0
05/03:00pm 2.0 -6.6 0.4 89 0.6 W 35 57 19 31 - - 12.0
05/02:51pm 2.1 -5.9 0.6 90 0.6 W 32 50 17 27 - - 12.0
05/02:30pm 1.3 -4.8 0.7 96 0.2 W 22 32 12 17 - - 11.6
05/02:00pm 0.8 -7.2 0.2 96 0.2 WSW 32 54 17 29 - - 10.4
05/01:30pm 2.1 -5.8 0.9 92 0.5 WNW 32 57 17 31 - - 10.2
05/01:24pm 0.9 -6.7 0.3 96 0.2 WNW 30 50 16 27 - - 9.6
05/01:00pm 0.8 -7.2 0.1 95 0.3 WNW 32 50 17 27 - - 9.0
05/12:59pm 0.8 -6.9 0.1 95 0.3 WNW 30 50 16 27 - - 9.0
05/12:30pm 1.0 -6.3 0.1 94 0.3 W 28 50 15 27 - - 7.8
05/12:00pm 1.3 -6.5 -0.5 88 0.7 WNW 30 56 16 30 - - 6.8
05/11:36am 0.4 -8.6 0.1 98 0.1 W 37 67 20 36 - - 4.8
05/11:33am 0.4 -8.6 0.0 97 0.1 W 37 67 20 36 - - 4.8
05/11:30am 0.4 -8.6 0.0 97 0.1 W 37 67 20 36 - - 4.8
05/11:00am 1.5 -7.1 0.0 90 0.6 WNW 35 57 19 31 - - 2.6
05/10:56am 0.7 -7.3 0.1 96 0.2 WNW 32 57 17 31 - - 2.6
05/10:30am 1.0 -7.2 -0.9 87 0.7 W 32 44 17 24 - - 2.2
05/10:10am 0.2 -8.1 -0.2 97 0.1 W 33 65 18 35 - - 1.2
05/10:05am 0.3 -8.8 -0.4 95 0.3 WSW 37 65 20 35 - - 1.2
05/10:00am 0.6 -8.9 -0.5 92 0.4 W 39 61 21 33 - - 1.2
05/09:30am 1.3 -8.2 -0.6 87 0.7 WNW 39 57 21 31 - - 0.0
05/09:08am 1.1 -6.7 -1.1 85 0.8 WNW 30 59 16 32 - - 0.0
05/09:00am 0.9 -5.4 -0.7 89 0.6 W 22 39 12 21 - - 16.8
05/08:30am 0.5 -6.9 -0.5 93 0.4 W 28 54 15 29 - - 16.8
05/08:27am 0.5 -6.9 -0.4 94 0.3 W 28 54 15 29 - - 16.8
05/08:18am 0.2 -7.5 -0.4 96 0.2 W 30 54 16 29 - - 16.8
05/08:00am 0.7 -8.8 -1.1 88 0.6 WNW 39 59 21 32 - - 16.8
05/07:58am 0.8 -8.4 -1.1 87 0.7 WNW 37 57 20 31 - - 16.8
05/07:57am 0.8 -8.0 -1.1 87 0.7 WNW 35 50 19 27 - - 16.8
05/07:30am 0.4 -6.7 -1.0 90 0.5 WSW 26 43 14 23 - - 16.8
05/07:02am 0.2 -7.3 -1.1 91 0.5 W 28 52 15 28 - - 16.8
05/07:00am 0.6 -6.5 -1.0 89 0.6 W 26 44 14 24 - - 16.8
05/06:37am -0.3 -8.7 -0.9 96 0.2 NW 33 52 18 28 - - 16.8
05/06:30am -0.6 -9.0 -0.9 98 0.1 NW 33 44 18 24 - - 16.8
05/06:12am -0.2 -7.8 -1.8 89 0.6 WNW 28 50 15 27 - - 16.8
05/06:00am 0.7 -6.6 -3.2 75 1.4 WNW 26 43 14 23 - - 16.8
05/05:30am 0.6 -8.3 -1.6 85 0.8 W 35 69 19 37 - - 16.8
05/05:12am 0.8 -8.5 -2.2 80 1.1 WNW 37 56 20 30 - - 16.8
05/05:00am 0.3 -8.6 -2.2 83 0.9 WNW 35 52 19 28 - - 16.8
05/04:30am 0.5 -8.9 -2.5 80 1.1 WNW 37 57 20 31 - - 16.8
05/04:00am 0.0 -8.4 -2.7 82 0.9 W 32 54 17 29 - - 16.8
05/03:30am -0.8 -10.0 -1.4 96 0.2 W 37 80 20 43 - - 16.8
05/03:16am -0.1 -8.4 -1.4 91 0.5 W 32 82 17 44 - - 16.8
05/03:15am 0.2 -7.4 -1.9 86 0.8 W 28 61 15 33 - - 16.8
05/03:00am 0.5 -7.8 -1.7 85 0.8 WNW 32 46 17 25 - - 16.8
05/02:30am 0.6 -7.3 -1.5 86 0.8 W 30 50 16 27 - - 16.8
05/02:00am 0.6 -8.1 -0.3 94 0.3 W 35 59 19 32 - - 16.8
05/01:37am 0.6 -7.1 -0.1 95 0.3 WSW 30 48 16 26 - - 16.8
05/01:30am 0.7 -8.3 -0.2 94 0.3 W 37 59 20 32 - - 16.8
05/01:28am 0.7 -8.7 -0.3 93 0.4 W 39 59 21 32 - - 16.8
05/01:04am 0.6 -8.9 -0.5 92 0.4 W 39 57 21 31 - - 16.8
05/01:00am 1.0 -9.3 -0.8 88 0.7 W 43 59 23 32 - - 16.8
05/12:30am 1.1 -9.0 0.5 96 0.2 W 43 76 23 41 - - 16.6
05/12:00am 0.9 -9.1 0.8 99 0.0 W 43 67 23 36 - - 16.2
 
Date/Time
EST
Temp
°C
App
Temp
°C
Dew
Point
Rel
Hum
%
Delta-T
°C
Wind Press
QNH
hPa
Press
MSL
hPa
Rain
since 9 am
mm
Dir
 
Spd
km/h
Gust
km/h
Spd
kts
Gust
kts
04/11:44pm 1.1 -11.0 0.8 98 0.1 W 54 72 29 39 - - 16.2
04/11:40pm 1.4 -10.7 0.8 96 0.2 W 54 72 29 39 - - 16.2
04/11:30pm 1.2 -8.0 1.1 99 0.0 WNW 39 63 21 34 - - 16.0
04/11:02pm 1.5 -10.1 1.4 99 0.0 WNW 52 70 28 38 - - 15.2
04/11:00pm 1.7 -10.3 1.6 99 0.0 WNW 54 70 29 38 - - 15.0
04/10:31pm 2.5 -9.5 1.6 94 0.4 WNW 54 74 29 40 - - 14.6
04/10:30pm 2.5 -9.1 1.6 94 0.4 WNW 52 69 28 37 - - 14.6
04/10:00pm 2.9 -9.9 2.3 96 0.2 WNW 59 83 32 45 - - 14.2
04/09:30pm 2.7 -9.6 2.3 97 0.2 WNW 56 80 30 43 - - 13.8
04/09:00pm 3.3 -8.4 3.2 99 0.0 WNW 54 76 29 41 - - 13.2
04/08:57pm 3.1 -7.9 3.0 99 0.0 WNW 50 70 27 38 - - 13.0
04/08:30pm 3.1 -7.1 3.0 99 0.0 WNW 46 59 25 32 - - 12.4
04/08:23pm 2.9 -7.4 2.8 99 0.0 WNW 46 70 25 38 - - 12.4
04/08:08pm 2.9 -8.5 2.8 99 0.0 NW 52 70 28 38 - - 11.6
04/08:00pm 2.6 -7.2 2.5 99 0.0 NW 43 54 23 29 - - 11.6
04/07:45pm 2.6 -8.9 2.5 99 0.0 NW 52 74 28 40 - - 11.2
04/07:32pm 2.7 -10.8 2.6 99 0.0 NW 63 85 34 46 - - 10.8
04/07:30pm 2.8 -10.3 2.7 99 0.0 NW 61 78 33 42 - - 10.6
04/07:00pm 3.3 -10.5 3.2 99 0.0 NW 65 83 35 45 - - 10.2
04/06:55pm 3.3 -10.5 3.2 99 0.0 WNW 65 83 35 45 - - 10.2
04/06:43pm 3.7 -8.0 3.3 97 0.2 W 54 82 29 44 - - 10.2
04/06:30pm 3.7 -6.1 3.4 98 0.1 WNW 44 67 24 36 - - 9.6
04/06:14pm 3.4 -7.2 3.3 99 0.0 WNW 48 70 26 38 - - 9.4
04/06:10pm 3.5 -6.1 3.4 99 0.0 WNW 43 70 23 38 - - 9.2
04/06:06pm 3.1 -5.4 3.0 99 0.0 WNW 37 56 20 30 - - 9.0
04/06:00pm 3.2 -6.5 3.1 99 0.0 WNW 43 61 23 33 - - 8.4
04/05:55pm 3.1 -7.5 3.0 99 0.0 WNW 48 61 26 33 - - 8.2
04/05:32pm 3.9 -9.0 3.8 99 0.0 WNW 61 80 33 43 - - 7.0
04/05:30pm 3.7 -9.7 3.6 99 0.0 WNW 63 80 34 43 - - 7.0
04/05:00pm 4.9 -6.9 4.8 99 0.0 WNW 56 76 30 41 - - 3.8
04/04:30pm 4.5 -7.6 4.2 98 0.1 WNW 57 76 31 41 - - 2.8
04/04:00pm 4.9 -8.7 4.3 96 0.3 NW 65 93 35 50 - - 1.8
04/03:30pm 5.0 -9.3 4.6 97 0.2 NW 69 89 37 48 - - 1.6
04/03:25pm 5.2 -8.3 4.9 98 0.1 NW 65 89 35 48 - - 1.6
04/03:24pm 5.0 -8.2 4.7 98 0.1 NW 63 89 34 48 - - 1.6
04/03:16pm 4.7 -6.8 4.4 98 0.1 NW 54 83 29 45 - - 1.6
04/03:15pm 4.7 -7.2 4.4 98 0.1 NW 56 85 30 46 - - 1.6
04/03:01pm 4.9 -8.7 4.2 95 0.3 NW 65 83 35 45 - - 1.4
04/03:00pm 4.9 -8.8 4.0 94 0.4 NW 65 78 35 42 - - 1.4
04/02:30pm 6.0 -8.7 3.8 86 1.0 NW 70 95 38 51 - - 1.0
04/02:00pm 5.9 -11.0 4.2 89 0.7 WNW 82 104 44 56 - - 1.0
04/01:30pm 5.8 -9.2 3.8 87 0.9 NW 72 96 39 52 - - 1.0
04/01:00pm 6.0 -9.8 3.8 86 1.0 NW 76 102 41 55 - - 1.0
04/12:30pm 5.2 -10.6 3.9 91 0.6 NW 76 100 41 54 - - 1.0
04/12:00pm 5.2 -8.9 3.9 91 0.6 NW 67 93 36 50 - - 1.0
04/11:31am 4.7 -7.4 4.0 95 0.3 NW 57 78 31 42 - - 1.0
04/11:30am 4.7 -7.4 4.1 96 0.3 NW 57 74 31 40 - - 1.0
04/11:15am 4.1 -7.1 4.0 99 0.0 NW 52 78 28 42 - - 1.0
04/11:14am 4.0 -6.8 3.9 99 0.0 NW 50 78 27 42 - - 1.0
04/11:05am 3.7 -5.5 3.4 98 0.1 NW 41 59 22 32 - - 1.0
04/11:00am 3.8 -5.0 3.5 98 0.1 NW 39 52 21 28 - - 1.0
04/10:54am 4.0 -4.7 3.9 99 0.0 NW 39 52 21 28 - - 1.0
04/10:30am 3.2 -6.5 3.1 99 0.0 NNW 43 56 23 30 - - 0.8
04/10:00am 2.9 -7.8 2.8 99 0.0 NNW 48 61 26 33 - - 0.8
04/09:30am 2.7 -6.7 2.6 99 0.0 NNW 41 57 22 31 - - 0.6
04/09:28am 2.7 -6.7 2.6 99 0.0 NNW 41 57 22 31 - - 0.6
04/09:00am 2.7 -5.0 2.1 96 0.2 NW 32 39 17 21 - - 22.4
04/08:40am 2.6 -6.1 2.0 96 0.2 NW 37 50 20 27 - - 21.8
04/08:33am 2.8 -7.0 2.2 96 0.2 NW 43 61 23 33 - - 21.4
04/08:30am 2.9 -7.4 2.5 97 0.2 NW 46 63 25 34 - - 21.4
04/08:06am 2.3 -6.0 2.0 98 0.1 NW 35 54 19 29 - - 20.2
04/08:00am 2.2 -5.8 1.8 97 0.2 NW 33 44 18 24 - - 20.0
04/07:55am 2.2 -6.5 1.8 97 0.2 NW 37 54 20 29 - - 19.8
04/07:42am 2.5 -6.9 2.2 98 0.1 NW 41 59 22 32 - - 19.2
04/07:37am 2.5 -6.9 2.4 99 0.0 NW 41 46 22 25 - - 19.0
04/07:30am 2.1 -7.4 2.0 99 0.0 NNW 41 46 22 25 - - 18.8
04/07:08am 2.0 -6.7 1.9 99 0.0 NW 37 57 20 31 - - 17.8
04/07:00am 2.1 -6.2 2.0 99 0.0 NW 35 43 19 23 - - 17.6
04/06:30am 2.0 -4.6 1.9 99 0.0 WNW 26 35 14 19 - - 16.8
04/06:00am 1.5 -6.4 1.2 98 0.1 NW 32 43 17 23 - - 16.0
04/05:44am 1.8 -5.3 1.5 98 0.1 NW 28 48 15 26 - - 15.6
04/05:30am 1.4 -5.7 1.1 98 0.1 NW 28 35 15 19 - - 15.2
04/05:00am 1.3 -6.6 1.2 99 0.0 WNW 32 43 17 23 - - 14.6
04/04:30am 0.9 -6.7 0.8 99 0.0 NW 30 37 16 20 - - 14.0
04/04:11am 0.8 -7.7 0.7 99 0.0 NW 35 54 19 29 - - 13.8
04/04:00am 1.2 -8.8 1.1 99 0.0 NW 43 52 23 28 - - 13.6
04/03:43am 0.9 -8.4 0.8 99 0.0 NW 39 57 21 31 - - 13.2
04/03:38am 0.8 -7.2 0.7 99 0.0 NW 32 48 17 26 - - 13.2
04/03:30am 0.6 -5.5 0.5 99 0.0 NNW 22 28 12 15 - - 13.0
04/03:00am 0.5 -7.7 0.4 99 0.0 NW 33 52 18 28 - - 12.8
04/02:30am 0.7 -8.6 0.4 98 0.1 NW 39 52 21 28 - - 12.2
04/02:00am 0.7 -9.0 0.6 99 0.0 NW 41 50 22 27 - - 12.0
04/01:32am 0.8 -8.9 0.7 99 0.0 NW 41 59 22 32 - - 11.8
04/01:30am 0.5 -8.8 0.4 99 0.0 NW 39 50 21 27 - - 11.8
04/01:00am 0.6 -7.4 0.5 99 0.0 NW 32 41 17 22 - - 11.6
04/12:30am 0.4 -7.6 0.3 99 0.0 NW 32 41 17 22 - - 11.4
04/12:00am 0.4 -7.6 0.3 99 0.0 NW 32 39 17 21 - - 11.4
 
Date/Time
EST
Temp
°C
App
Temp
°C
Dew
Point
Rel
Hum
%
Delta-T
°C
Wind Press
QNH
hPa
Press
MSL
hPa
Rain
since 9 am
mm
Dir
 
Spd
km/h
Gust
km/h
Spd
kts
Gust
kts
03/11:30pm 0.3 -7.7 0.2 99 0.0 NW 32 46 17 25 - - 11.2
03/11:00pm 0.2 -6.7 0.1 99 0.0 NW 26 32 14 17 - - 11.2
03/10:53pm 0.3 -7.0 0.0 98 0.1 NW 28 37 15 20 - - 11.2
03/10:30pm 0.4 -4.1 -0.6 93 0.4 W 13 17 7 9 - - 11.2
03/10:00pm 0.8 -5.0 0.1 95 0.3 WNW 20 26 11 14 - - 11.2
03/09:30pm 0.4 -6.1 0.3 99 0.0 NW 24 28 13 15 - - 11.2
03/09:00pm 0.4 -5.2 0.0 97 0.1 NNW 19 24 10 13 - - 11.2
03/08:30pm 1.3 -4.0 -0.5 88 0.7 WNW 17 20 9 11 - - 11.0
03/08:00pm 1.5 -3.3 -0.1 89 0.6 WSW 15 24 8 13 - - 11.0
03/07:30pm 1.2 -4.6 0.2 93 0.4 W 20 30 11 16 - - 11.0
03/07:00pm 1.3 -3.9 0.0 91 0.5 WSW 17 33 9 18 - - 10.8
03/06:30pm 1.6 -3.6 0.4 92 0.5 WSW 17 24 9 13 - - 10.6
03/06:00pm 0.9 -3.9 0.3 96 0.2 WNW 15 22 8 12 - - 10.4
03/05:30pm 0.7 -5.8 0.4 98 0.1 W 24 33 13 18 - - 10.0
03/05:00pm 1.0 -4.6 0.1 94 0.3 WSW 19 30 10 16 - - 9.6
03/04:30pm 1.3 -4.6 -0.5 88 0.7 S 20 39 11 21 - - 9.4
03/04:00pm 2.1 -3.7 -0.3 84 0.9 SW 20 32 11 17 - - 8.0
03/03:37pm 1.6 -7.5 -0.3 87 0.7 WSW 37 59 20 32 - - 6.2
03/03:30pm 1.5 -7.2 -0.4 87 0.7 W 35 50 19 27 - - 5.8
03/03:24pm 1.3 -7.4 -0.8 86 0.8 SW 35 59 19 32 - - 5.4
03/03:19pm 1.8 -6.9 -0.8 83 1.0 SW 35 59 19 32 - - 5.0
03/03:00pm 0.7 -9.7 -0.4 92 0.4 SSW 44 82 24 44 - - 4.2
03/02:54pm 1.3 -7.1 -0.8 86 0.8 SW 33 82 18 44 - - 3.8
03/02:30pm 1.8 -6.8 -0.1 87 0.7 SSW 35 56 19 30 - - 1.2
03/02:02pm 1.3 -8.6 -0.6 87 0.7 SSW 41 76 22 41 - - 0.2
03/02:00pm 1.9 -7.5 0.0 87 0.7 SSW 39 57 21 31 - - 0.2
03/01:30pm 1.3 -7.7 -0.2 90 0.6 SW 37 61 20 33 - - 0.0
03/01:17pm 1.2 -6.8 0.2 93 0.4 WSW 32 65 17 35 - - 0.0
03/01:13pm 0.9 -6.4 0.0 94 0.3 SW 28 46 15 25 - - 0.0
03/01:00pm 1.0 -7.7 -0.3 91 0.5 SW 35 61 19 33 - - 0.0
03/12:30pm 1.2 -9.2 -0.7 87 0.7 SSW 44 65 24 35 - - 0.0
03/12:25pm 1.2 -9.2 -0.7 87 0.7 SSW 44 65 24 35 - - 0.0
03/12:24pm 1.3 -9.5 -0.6 87 0.7 SSW 46 69 25 37 - - 0.0
03/12:16pm 0.8 -8.6 -0.1 94 0.3 WSW 39 74 21 40 - - 0.0
03/12:15pm 0.9 -8.1 0.0 94 0.3 WSW 37 74 20 40 - - 0.0
03/12:14pm 0.8 -7.4 0.1 95 0.3 WSW 33 74 18 40 - - 0.0
03/12:05pm 0.9 -7.4 -0.1 93 0.4 WSW 33 56 18 30 - - 0.0
03/12:02pm 1.0 -7.3 0.0 93 0.4 WSW 33 56 18 30 - - 0.0
03/12:00pm 0.8 -7.3 -0.2 93 0.4 SW 32 56 17 30 - - 0.0
03/11:30am 0.2 -7.8 0.1 99 0.0 WSW 32 52 17 28 - - 0.0
03/11:18am 0.3 -7.0 0.0 98 0.1 WSW 28 52 15 28 - - 0.0
03/11:00am 0.3 -5.5 -0.3 96 0.2 WSW 20 35 11 19 - - 0.0
03/10:31am 0.7 -6.7 -0.6 91 0.5 SSW 28 50 15 27 - - 0.0
03/10:30am 0.8 -6.2 -0.5 91 0.5 SSW 26 50 14 27 - - 0.0
03/10:00am 0.4 -6.6 -0.3 95 0.3 WSW 26 46 14 25 - - 0.0
03/09:58am 0.5 -6.1 -0.2 95 0.3 SW 24 46 13 25 - - 0.0
03/09:45am 0.3 -8.8 -0.8 92 0.4 W 37 56 20 30 - - 0.0
03/09:30am -0.1 -10.4 -0.9 94 0.3 W 43 76 23 41 - - 0.0
03/09:26am 0.0 -10.3 -1.0 93 0.4 W 43 76 23 41 - - 0.0
03/09:03am 0.3 -8.5 -1.1 90 0.5 WNW 35 56 19 30 - - 0.0
03/09:00am 0.2 -8.6 -1.4 89 0.6 WNW 35 50 19 27 - - 17.6
03/08:37am -0.7 -9.9 -1.1 97 0.1 WNW 37 56 20 30 - - 17.6
03/08:30am -0.8 -9.6 -1.1 98 0.1 WNW 35 50 19 27 - - 17.6
03/08:01am -0.8 -11.4 -1.8 93 0.3 WNW 44 83 24 45 - - 17.6
03/08:00am -0.7 -10.7 -2.0 91 0.4 WNW 41 63 22 34 - - 17.6
03/07:35am -0.3 -11.2 -1.6 91 0.4 WNW 46 65 25 35 - - 17.6
03/07:30am -0.3 -11.3 -1.9 89 0.6 WNW 46 61 25 33 - - 17.6
03/07:00am -0.1 -9.4 -2.2 86 0.7 WNW 37 56 20 30 - - 17.6
03/06:58am -0.2 -9.5 -2.1 87 0.7 WNW 37 56 20 30 - - 17.6
03/06:30am -0.4 -9.0 -2.3 87 0.6 WNW 33 48 18 26 - - 17.6
03/06:12am -0.6 -11.0 -1.9 91 0.4 WNW 43 61 23 33 - - 17.6
03/06:00am -0.9 -11.3 -1.7 94 0.2 WNW 43 59 23 32 - - 17.6
03/05:31am -0.7 -10.5 -3.1 84 0.8 WNW 39 61 21 33 - - 17.6
03/05:30am -0.6 -10.4 -3.0 84 0.8 WNW 39 54 21 29 - - 17.6
03/05:00am -0.9 -10.2 -2.0 92 0.3 WNW 37 63 20 34 - - 17.6
03/04:31am -0.7 -9.5 -1.4 95 0.2 WNW 35 56 19 30 - - 17.6
03/04:30am -0.7 -9.5 -1.4 95 0.2 WNW 35 50 19 27 - - 17.6
03/04:00am -0.9 -11.0 -2.5 89 0.5 WNW 41 54 22 29 - - 17.6
03/03:30am -0.6 -9.0 -1.4 94 0.3 W 33 48 18 26 - - 17.6
03/03:00am -0.9 -9.3 -1.0 99 0.0 WNW 33 43 18 23 - - 17.6
03/02:46am -0.7 -9.8 -0.8 99 0.0 WSW 37 57 20 31 - - 17.6
03/02:32am -0.4 -9.9 -0.7 98 0.1 W 39 59 21 32 - - 17.6
03/02:30am -0.3 -9.8 -0.6 98 0.1 W 39 59 21 32 - - 17.6
03/02:23am 0.1 -9.4 -0.5 96 0.2 WNW 39 59 21 32 - - 17.6
03/02:16am 0.1 -10.6 0.0 99 0.0 WNW 46 61 25 33 - - 17.6
03/02:00am -0.1 -10.9 -0.2 99 0.0 NW 46 61 25 33 - - 17.6
03/01:56am -0.1 -9.5 -0.2 99 0.0 NW 39 59 21 32 - - 17.6
03/01:30am -0.1 -9.6 -0.5 97 0.1 WNW 39 52 21 28 - - 17.6
03/01:00am -0.1 -9.6 -0.5 97 0.1 WNW 39 57 21 31 - - 17.6
03/12:44am 0.1 -9.3 -0.3 97 0.2 WNW 39 67 21 36 - - 17.6
03/12:30am 0.3 -10.1 -0.7 93 0.4 WNW 44 59 24 32 - - 17.6
03/12:00am 0.2 -10.5 0.1 99 0.0 WNW 46 57 25 31 - - 17.6
 
Date/Time
EST
Temp
°C
App
Temp
°C
Dew
Point
Rel
Hum
%
Delta-T
°C
Wind Press
QNH
hPa
Press
MSL
hPa
Rain
since 9 am
mm
Dir
 
Spd
km/h
Gust
km/h
Spd
kts
Gust
kts
02/11:30pm 0.1 -9.7 0.0 99 0.0 NW 41 56 22 30 - - 17.6
02/11:00pm 0.2 -10.1 0.1 99 0.0 WNW 44 57 24 31 - - 17.6
02/10:30pm 0.1 -12.7 0.0 99 0.0 NW 57 76 31 41 - - 17.6
02/10:00pm 0.1 -11.4 0.0 99 0.0 NW 50 69 27 37 - - 17.6
02/09:57pm 0.0 -11.5 -0.1 99 0.0 NW 50 69 27 37 - - 17.6
02/09:53pm 0.0 -11.9 -0.1 99 0.0 NW 52 69 28 37 - - 17.6
02/09:30pm 0.0 -9.4 -0.1 99 0.0 NW 39 48 21 26 - - 17.6
02/09:12pm 0.1 -8.0 0.0 99 0.0 WNW 32 52 17 28 - - 17.6
02/09:00pm 0.0 -10.2 -0.1 99 0.0 WNW 43 54 23 29 - - 17.6

Other Formats:

Comma delimited format used in spreadsheet applications
http://www.bom.gov.au/fwo/IDT60801/IDT60801.95958.axf

JavaScript Object Notation format (JSON) in row-major order
http://www.bom.gov.au/fwo/IDT60801/IDT60801.95958.json